Time;durP1;ratioP1;P1;durP2;ratioP2;P2;SDS_P1;SDS_P2;PMS_P1;PMS_P2;Temp;Humidity;BMP_temperature;BMP_pressure;BME280_temperature;BME280_humidity;BME280_pressure;Samples;Min_cycle;Max_cycle;Signal;HPM_P1;HPM_P2
2022/12/08 00:02:12;;;;;;;24.73;15.03;;;;;;;3.95;78.33;100106.03;5015707;28;20387;-75
2022/12/08 00:09:20;;;;;;;24.85;15.20;;;;;;;3.87;78.20;100101.69;5034301;28;20398;-74
2022/12/08 00:10:07;;;;;;;26.35;15.07;;;;;;;3.91;78.60;100104.78;5023226;28;20435;-74
2022/12/08 00:12:32;;;;;;;25.50;15.13;;;;;;;3.96;78.56;100099.59;5003835;28;20974;-75
2022/12/08 00:14:58;;;;;;;24.50;14.90;;;;;;;3.98;78.47;100108.28;5027583;28;20426;-74
2022/12/08 00:17:23;;;;;;;25.77;15.33;;;;;;;3.97;78.28;100102.09;5033260;28;20396;-74
2022/12/08 00:19:49;;;;;;;25.03;15.00;;;;;;;4.00;78.28;100093.63;5022149;28;20418;-74
2022/12/08 00:22:14;;;;;;;26.00;15.13;;;;;;;4.02;78.52;100096.91;5021849;28;20399;-74
2022/12/08 00:24:40;;;;;;;26.03;16.23;;;;;;;4.07;78.48;100083.69;5018858;28;20389;-74
2022/12/08 00:27:08;;;;;;;24.02;15.73;;;;;;;4.05;78.12;100091.13;5034107;28;20397;-74
2022/12/08 00:29:33;;;;;;;24.50;14.90;;;;;;;3.95;79.43;100082.69;5027770;28;20402;-74
2022/12/08 00:31:58;;;;;;;24.60;15.33;;;;;;;4.06;78.73;100081.22;5011878;28;20394;-74
2022/12/08 00:34:24;;;;;;;25.50;14.60;;;;;;;4.11;78.90;100073.38;5026895;28;20793;-75
2022/12/08 00:36:49;;;;;;;25.30;15.73;;;;;;;4.12;78.67;100069.63;5033680;28;20449;-74
2022/12/08 00:39:16;;;;;;;27.23;15.10;;;;;;;4.11;78.79;100070.69;5033915;28;20399;-74
2022/12/08 00:44:25;;;;;;;23.83;14.70;;;;;;;4.17;78.65;100062.63;5018417;28;20782;-74
2022/12/08 00:46:51;;;;;;;25.63;14.80;;;;;;;4.17;78.85;100061.78;5033513;28;20479;-74
2022/12/08 00:49:16;;;;;;;30.25;16.23;;;;;;;4.17;78.35;100064.47;5020799;28;20817;-74
2022/12/08 00:51:42;;;;;;;25.63;15.03;;;;;;;4.15;78.64;100056.63;5019981;28;20767;-74
2022/12/08 00:54:08;;;;;;;27.70;15.95;;;;;;;4.07;78.47;100051.53;5033076;28;20445;-74
2022/12/08 00:56:34;;;;;;;26.42;15.93;;;;;;;3.89;79.12;100054.06;5033429;28;20399;-74
2022/12/08 00:59:03;;;;;;;26.75;15.35;;;;;;;3.65;79.64;100054.75;5033004;28;20398;-74
2022/12/08 01:01:28;;;;;;;30.20;15.07;;;;;;;3.59;79.91;100045.69;5012727;28;20495;-74
2022/12/08 01:03:53;;;;;;;26.30;14.93;;;;;;;3.66;80.20;100042.97;5028032;28;20395;-74
2022/12/08 01:06:19;;;;;;;23.87;14.27;;;;;;;3.76;79.66;100034.50;5027994;28;20415;-74
2022/12/08 01:08:44;;;;;;;22.03;13.90;;;;;;;3.84;79.11;100040.47;5033228;28;20410;-74
2022/12/08 01:11:12;;;;;;;23.43;14.07;;;;;;;3.84;79.14;100039.66;5022754;28;20858;-74
2022/12/08 01:13:38;;;;;;;23.27;14.45;;;;;;;3.79;79.05;100039.47;5032978;28;20391;-74
2022/12/08 01:16:03;;;;;;;21.98;13.15;;;;;;;3.81;79.15;100040.06;5032657;28;20470;-74
2022/12/08 01:18:29;;;;;;;23.17;14.32;;;;;;;3.82;79.04;100041.72;5032946;28;20871;-74
2022/12/08 01:21:00;;;;;;;22.42;14.02;;;;;;;3.80;78.90;100043.78;5002178;28;20414;-74
2022/12/08 01:23:26;;;;;;;19.33;12.65;;;;;;;3.80;78.96;100039.25;5007767;28;20395;-74
2022/12/08 01:25:52;;;;;;;21.90;13.13;;;;;;;3.63;78.92;100043.41;5031302;28;20890;-75
2022/12/08 01:28:17;;;;;;;20.30;12.90;;;;;;;3.41;79.64;100042.03;5032746;28;20402;-74
2022/12/08 01:30:42;;;;;;;22.47;12.90;;;;;;;3.35;80.13;100045.53;5023031;28;20939;-74
2022/12/08 01:33:07;;;;;;;24.30;13.25;;;;;;;3.39;80.18;100041.41;5032721;28;20402;-74
2022/12/08 01:35:33;;;;;;;22.23;13.20;;;;;;;3.51;79.84;100045.91;5014425;28;20410;-74
2022/12/08 01:37:58;;;;;;;23.60;14.53;;;;;;;3.54;79.82;100053.53;5030532;28;20387;-74
2022/12/08 01:40:23;;;;;;;20.60;13.27;;;;;;;3.61;79.19;100043.63;5003954;28;20894;-74
2022/12/08 01:42:48;;;;;;;20.43;13.07;;;;;;;3.55;79.38;100043.66;5019172;28;20517;-74
2022/12/08 01:45:21;;;;;;;22.57;13.60;;;;;;;3.56;79.53;100051.47;5031802;28;20891;-75
2022/12/08 01:47:51;;;;;;;23.90;13.32;;;;;;;3.64;79.10;100047.75;5032455;28;20406;-74
2022/12/08 01:50:19;;;;;;;18.85;12.57;;;;;;;3.71;79.06;100047.72;5010395;28;20465;-74
2022/12/08 01:52:52;;;;;;;17.70;12.57;;;;;;;3.67;78.52;100047.31;5020515;28;20426;-74
2022/12/08 01:55:31;;;;;;;23.25;13.35;;;;;;;3.51;79.47;100042.41;5031874;28;20478;-74
2022/12/08 01:58:10;;;;;;;18.27;11.70;;;;;;;3.52;79.34;100042.19;5024445;28;20406;-74
2022/12/08 02:00:35;;;;;;;19.45;12.40;;;;;;;3.60;79.20;100039.31;5005235;28;20422;-74
2022/12/08 02:03:08;;;;;;;21.20;11.83;;;;;;;3.63;79.18;100033.53;5027059;28;20406;-74
2022/12/08 02:05:37;;;;;;;21.05;12.88;;;;;;;3.68;78.81;100035.56;5031918;28;20442;-74
2022/12/08 02:08:06;;;;;;;18.60;12.00;;;;;;;3.74;78.66;100031.22;5031988;28;20489;-74
2022/12/08 02:10:35;;;;;;;19.20;11.80;;;;;;;3.74;78.51;100032.06;4999326;28;20770;-74
2022/12/08 02:13:03;;;;;;;20.70;12.70;;;;;;;3.70;78.50;100028.13;5029680;28;20391;-74
2022/12/08 02:15:43;;;;;;;18.63;12.27;;;;;;;3.69;78.67;100029.16;5013935;28;20878;-74
2022/12/08 02:18:38;;;;;;;20.63;12.57;;;;;;;3.60;79.05;100017.88;5031738;28;20400;-74
2022/12/08 02:21:16;;;;;;;20.33;11.70;;;;;;;3.62;78.80;100015.78;5000668;28;20430;-75
2022/12/08 02:23:57;;;;;;;20.02;12.13;;;;;;;3.54;79.18;100004.50;5030443;28;20399;-74
2022/12/08 02:26:39;;;;;;;21.08;12.27;;;;;;;3.55;79.00;100006.97;5024246;28;20426;-75
2022/12/08 02:29:37;;;;;;;20.20;12.63;;;;;;;3.39;79.60;100009.28;5002948;28;20409;-75
2022/12/08 02:32:36;;;;;;;18.00;11.98;;;;;;;3.52;79.45;100007.34;5005036;28;20457;-74
2022/12/08 02:35:33;;;;;;;20.50;12.68;;;;;;;3.55;78.98;100006.16;5003796;28;20870;-74
2022/12/08 02:38:17;;;;;;;21.85;12.68;;;;;;;3.49;79.26;99998.94;5010365;28;20417;-74
2022/12/08 02:40:59;;;;;;;18.75;11.55;;;;;;;3.59;79.14;100001.97;4999907;28;20394;-74
2022/12/08 02:43:35;;;;;;;20.08;12.02;;;;;;;3.69;78.79;99997.00;5031481;28;20867;-74
2022/12/08 02:46:07;;;;;;;17.77;11.88;;;;;;;3.75;78.64;100000.72;5031301;28;20419;-74
2022/12/08 02:48:33;;;;;;;20.02;11.80;;;;;;;3.75;78.55;99998.03;5015049;28;20407;-74
2022/12/08 02:50:58;;;;;;;18.53;11.93;;;;;;;3.78;78.74;99994.94;5006930;28;20418;-75
2022/12/08 02:53:26;;;;;;;20.27;12.23;;;;;;;3.83;78.71;99989.75;5025454;28;20475;-74
2022/12/08 02:56:16;;;;;;;17.97;11.60;;;;;;;3.85;78.24;99977.81;5026628;28;20885;-74
2022/12/08 02:58:50;;;;;;;19.75;12.18;;;;;;;3.67;78.81;99978.47;5019201;28;20907;-74
2022/12/08 03:01:37;;;;;;;20.67;11.80;;;;;;;3.66;78.98;99984.03;5031383;28;20391;-74
2022/12/08 03:04:29;;;;;;;18.30;11.60;;;;;;;3.76;78.77;99976.38;5029645;28;20391;-74
2022/12/08 03:07:02;;;;;;;18.88;12.05;;;;;;;3.72;78.74;99975.19;5016825;28;20497;-74
2022/12/08 03:09:37;;;;;;;22.80;12.40;;;;;;;3.76;78.48;99975.53;4996811;28;20727;-74
2022/12/08 03:12:15;;;;;;;20.37;13.27;;;;;;;3.78;78.50;99965.44;5027536;28;20547;-74
2022/12/08 03:14:47;;;;;;;19.27;12.70;;;;;;;3.73;78.84;99960.72;5026275;28;20449;-75
2022/12/08 03:17:14;;;;;;;21.40;12.85;;;;;;;3.72;78.50;99956.41;5027015;28;20423;-75
2022/12/08 03:19:42;;;;;;;19.20;12.60;;;;;;;3.74;78.37;99964.22;5026502;28;20399;-75
2022/12/08 03:22:09;;;;;;;22.35;13.32;;;;;;;3.75;78.43;99960.53;5008833;28;20412;-74
2022/12/08 03:24:38;;;;;;;18.95;12.43;;;;;;;3.70;78.47;99960.31;5019635;28;20398;-74
2022/12/08 03:27:22;;;;;;;23.55;13.73;;;;;;;3.70;78.52;99950.44;5012123;28;20428;-74
2022/12/08 03:29:52;;;;;;;21.45;13.02;;;;;;;3.71;78.58;99954.75;5013087;28;20431;-74
2022/12/08 03:32:26;;;;;;;20.17;13.07;;;;;;;3.68;78.34;99952.50;5023183;28;20429;-74
2022/12/08 03:34:53;;;;;;;24.15;13.23;;;;;;;3.63;78.44;99947.78;5023455;28;20426;-74
2022/12/08 03:37:19;;;;;;;23.02;13.25;;;;;;;3.62;78.28;99946.13;5028361;28;20391;-74
2022/12/08 03:39:44;;;;;;;19.25;12.13;;;;;;;3.55;78.67;99940.00;5018984;28;20399;-74
2022/12/08 03:42:10;;;;;;;20.42;12.65;;;;;;;3.52;79.04;99935.03;5012516;28;20403;-75
2022/12/08 03:44:35;;;;;;;22.73;12.50;;;;;;;3.54;78.89;99932.97;5014496;28;20510;-75
2022/12/08 03:47:00;;;;;;;21.10;13.13;;;;;;;3.53;78.73;99939.34;5030937;28;20501;-74
2022/12/08 03:49:25;;;;;;;22.10;13.20;;;;;;;3.56;79.19;99935.44;5008209;28;20422;-75
2022/12/08 03:51:51;;;;;;;21.30;12.80;;;;;;;3.57;79.08;99945.13;5007488;28;20406;-74
2022/12/08 03:54:16;;;;;;;20.60;11.63;;;;;;;3.57;78.89;99940.59;5015516;28;20477;-74
2022/12/08 03:56:41;;;;;;;21.27;12.73;;;;;;;3.56;78.89;99936.25;5013207;28;20394;-74
2022/12/08 03:59:07;;;;;;;20.97;12.70;;;;;;;3.59;78.86;99932.31;5016164;28;20446;-74
2022/12/08 04:01:33;;;;;;;24.25;13.20;;;;;;;3.58;78.73;99925.34;5006460;28;20410;-74
2022/12/08 04:03:58;;;;;;;21.50;12.70;;;;;;;3.54;78.73;99919.59;5012741;28;20762;-75
2022/12/08 04:06:24;;;;;;;21.87;13.07;;;;;;;3.54;78.94;99924.13;5033221;28;20493;-74
2022/12/08 04:08:50;;;;;;;22.77;12.90;;;;;;;3.49;78.85;99921.25;5036632;28;20816;-74
2022/12/08 04:11:16;;;;;;;21.40;13.57;;;;;;;3.47;79.38;99908.06;5053923;28;20404;-74
2022/12/08 04:13:42;;;;;;;24.33;13.57;;;;;;;3.46;79.41;99914.44;5047179;28;20527;-74
2022/12/08 04:16:13;;;;;;;22.85;13.05;;;;;;;3.43;79.26;99919.41;5038006;28;20775;-74
2022/12/08 04:18:38;;;;;;;22.70;13.15;;;;;;;3.45;79.25;99903.97;5045724;28;20403;-75
2022/12/08 04:21:03;;;;;;;24.50;14.07;;;;;;;3.50;79.09;99904.97;5041409;28;20919;-74
2022/12/08 04:23:29;;;;;;;25.23;13.80;;;;;;;3.50;78.97;99909.50;5053680;28;20386;-74
2022/12/08 04:25:54;;;;;;;25.17;13.33;;;;;;;3.47;79.09;99902.72;5053665;28;20414;-74
2022/12/08 04:28:19;;;;;;;25.20;13.53;;;;;;;3.48;79.24;99900.84;5046931;28;20393;-74
2022/12/08 04:30:47;;;;;;;20.27;13.05;;;;;;;3.46;79.13;99900.22;5038653;28;20394;-75
2022/12/08 04:33:12;;;;;;;21.75;12.93;;;;;;;3.42;79.05;99896.34;5053723;28;20400;-74
2022/12/08 04:35:37;;;;;;;23.17;13.33;;;;;;;3.42;78.90;99893.69;5052380;28;20389;-74
2022/12/08 04:38:02;;;;;;;21.80;13.38;;;;;;;3.42;78.87;99896.34;5053689;28;20389;-74
2022/12/08 04:40:28;;;;;;;22.43;13.60;;;;;;;3.38;79.13;99893.28;5018307;28;20405;-74
2022/12/08 04:42:53;;;;;;;23.33;13.57;;;;;;;3.34;79.46;99897.41;5053689;28;20471;-74
2022/12/08 04:45:18;;;;;;;27.13;14.57;;;;;;;3.35;79.43;99899.06;5053235;28;20479;-74
2022/12/08 04:47:44;;;;;;;23.03;13.43;;;;;;;3.39;79.25;99896.78;5031889;28;20812;-74
2022/12/08 04:50:09;;;;;;;24.00;13.77;;;;;;;3.38;79.14;99897.81;5015739;28;20415;-75
2022/12/08 04:52:34;;;;;;;25.38;14.07;;;;;;;3.32;79.04;99901.34;5046642;28;20393;-74
2022/12/08 04:55:00;;;;;;;24.33;13.47;;;;;;;3.31;79.27;99897.84;5050576;28;20410;-75
2022/12/08 04:57:25;;;;;;;21.17;13.53;;;;;;;3.33;78.97;99889.56;5045902;28;20392;-74
2022/12/08 04:59:50;;;;;;;23.40;13.67;;;;;;;3.34;79.18;99897.41;5036097;28;20825;-75
2022/12/08 05:02:15;;;;;;;27.15;15.40;;;;;;;3.34;78.89;99889.38;5051597;28;20899;-74
2022/12/08 05:04:41;;;;;;;22.37;14.87;;;;;;;3.30;78.79;99885.47;5041721;28;20394;-74
2022/12/08 05:07:06;;;;;;;25.83;14.47;;;;;;;3.27;78.94;99888.56;5043884;28;20428;-74
2022/12/08 05:09:31;;;;;;;24.75;14.73;;;;;;;3.24;79.13;99889.00;5042938;28;20421;-74
2022/12/08 05:11:56;;;;;;;25.23;14.83;;;;;;;3.23;79.07;99887.34;5034419;28;20401;-74
2022/12/08 05:14:22;;;;;;;24.07;14.43;;;;;;;3.20;79.45;99890.44;5030411;28;20737;-74
2022/12/08 05:16:48;;;;;;;24.97;14.37;;;;;;;3.23;79.29;99887.34;5050958;28;20396;-74
2022/12/08 05:19:14;;;;;;;28.40;16.88;;;;;;;3.17;79.26;99896.22;5041578;28;20405;-74
2022/12/08 05:21:40;;;;;;;29.10;18.20;;;;;;;3.18;79.35;99889.84;5025315;28;20754;-74
2022/12/08 05:24:05;;;;;;;25.55;14.73;;;;;;;3.20;79.64;99890.44;5033624;28;20401;-75
2022/12/08 05:26:31;;;;;;;26.83;15.97;;;;;;;3.17;79.29;99885.50;5030044;28;20426;-74
2022/12/08 05:28:56;;;;;;;25.17;15.40;;;;;;;3.14;79.69;99894.78;5020942;28;20385;-74
2022/12/08 05:31:21;;;;;;;21.20;15.53;;;;;;;3.22;79.60;99892.91;5031730;28;20419;-74
2022/12/08 05:33:48;;;;;;;24.02;15.23;;;;;;;3.29;79.46;99894.56;5030616;28;20502;-75
2022/12/08 05:36:14;;;;;;;34.67;18.02;;;;;;;3.32;79.12;99886.09;5041408;28;20776;-74
2022/12/08 05:38:40;;;;;;;47.63;21.20;;;;;;;3.28;79.31;99887.53;5022733;28;20584;-74
2022/12/08 05:41:06;;;;;;;49.43;21.83;;;;;;;3.25;79.76;99885.28;5046081;28;20500;-74
2022/12/08 05:43:31;;;;;;;54.08;22.55;;;;;;;3.21;79.63;99884.06;5038237;28;20399;-74
2022/12/08 05:45:56;;;;;;;35.37;18.07;;;;;;;3.23;79.15;99887.34;5038560;28;20441;-74
2022/12/08 05:48:22;;;;;;;34.80;17.07;;;;;;;3.23;79.42;99886.53;5042856;28;20414;-74
2022/12/08 05:50:48;;;;;;;34.17;17.97;;;;;;;3.24;79.94;99885.50;5017863;28;20488;-74
2022/12/08 05:53:15;;;;;;;34.53;17.80;;;;;;;3.28;79.59;99884.03;5027422;28;20403;-74
2022/12/08 05:55:43;;;;;;;31.20;17.13;;;;;;;3.32;79.49;99878.06;5028879;28;20397;-74
2022/12/08 05:58:15;;;;;;;34.65;18.40;;;;;;;3.35;79.19;99885.66;5036276;28;20771;-74
2022/12/08 06:00:41;;;;;;;26.15;16.13;;;;;;;3.34;79.62;99884.00;5032297;28;20397;-74
2022/12/08 06:03:06;;;;;;;28.25;15.88;;;;;;;3.33;79.29;99881.53;5040305;28;20409;-73
2022/12/08 06:05:32;;;;;;;28.30;16.33;;;;;;;3.32;79.53;99885.28;5036043;28;20402;-75
2022/12/08 06:07:58;;;;;;;28.48;16.38;;;;;;;3.34;79.72;99886.69;5019958;28;20925;-74
2022/12/08 06:10:23;;;;;;;27.10;16.40;;;;;;;3.34;79.62;99878.66;5030278;28;20395;-74
2022/12/08 06:12:48;;;;;;;28.53;15.87;;;;;;;3.31;79.25;99876.41;5029667;28;20726;-75
2022/12/08 06:15:14;;;;;;;31.90;16.83;;;;;;;3.37;79.84;99883.59;5040317;28;20388;-75
2022/12/08 06:17:39;;;;;;;29.33;16.05;;;;;;;3.36;79.68;99881.13;5050127;28;20481;-75
2022/12/08 06:20:05;;;;;;;25.63;15.17;;;;;;;3.13;80.16;99877.06;5046833;28;20853;-76
2022/12/08 06:22:30;;;;;;;26.75;15.93;;;;;;;3.34;79.90;99880.50;5040798;28;20425;-75
2022/12/08 06:24:56;;;;;;;27.00;15.40;;;;;;;3.01;80.53;99886.78;5051229;28;20422;-74
2022/12/08 06:27:21;;;;;;;25.47;15.20;;;;;;;3.05;80.99;99889.88;5022010;28;20411;-74
2022/12/08 06:29:46;;;;;;;29.63;16.67;;;;;;;2.96;81.24;99883.13;5051922;28;20407;-75
2022/12/08 06:32:11;;;;;;;22.50;14.80;;;;;;;2.90;81.57;99879.41;5026010;28;20479;-74
2022/12/08 06:34:37;;;;;;;29.63;15.97;;;;;;;2.95;81.47;99878.78;5024983;28;20420;-75
2022/12/08 06:37:02;;;;;;;27.87;15.50;;;;;;;3.08;81.15;99876.91;5033094;28;20401;-75
2022/12/08 06:39:27;;;;;;;27.53;16.17;;;;;;;3.10;81.10;99884.69;5028883;28;20414;-75
2022/12/08 06:44:38;;;;;;;25.20;14.85;;;;;;;2.96;81.13;99886.63;5022678;28;20457;-75
2022/12/08 06:47:03;;;;;;;26.95;17.05;;;;;;;3.67;78.94;99887.38;5019316;28;20423;-75
2022/12/08 06:49:30;;;;;;;27.90;16.98;;;;;;;3.78;78.19;99887.72;5035501;28;20433;-75
2022/12/08 06:51:55;;;;;;;25.07;15.27;;;;;;;3.88;77.95;99888.09;5044544;28;20809;-75
2022/12/08 06:54:21;;;;;;;27.40;16.73;;;;;;;3.96;77.46;99887.81;5050339;28;20393;-75
2022/12/08 06:56:46;;;;;;;26.77;16.73;;;;;;;3.98;77.40;99891.13;5051390;28;20400;-75
2022/12/08 06:59:11;;;;;;;27.40;16.80;;;;;;;3.99;77.17;99896.25;5051096;28;20385;-75
2022/12/08 07:01:36;;;;;;;29.47;17.33;;;;;;;3.96;77.59;99893.19;5029490;28;20504;-74
2022/12/08 07:04:02;;;;;;;27.27;16.97;;;;;;;3.98;77.40;99889.28;5026508;28;20405;-75
2022/12/08 07:06:27;;;;;;;30.50;18.37;;;;;;;3.94;77.55;99888.03;5049760;28;20448;-76
2022/12/08 07:08:52;;;;;;;26.30;16.00;;;;;;;3.90;77.96;99886.81;5049753;28;20833;-75
2022/12/08 07:11:17;;;;;;;26.93;16.10;;;;;;;3.79;78.17;99897.44;5049779;28;20393;-75
2022/12/08 07:13:43;;;;;;;29.73;17.13;;;;;;;3.73;78.12;99895.56;5050700;28;20389;-75
2022/12/08 07:16:10;;;;;;;25.77;15.82;;;;;;;3.52;78.90;99894.06;5038874;28;20435;-76
2022/12/08 07:18:36;;;;;;;28.65;17.63;;;;;;;3.42;79.41;99886.47;5031453;28;20761;-76
2022/12/08 07:21:07;;;;;;;27.50;17.70;;;;;;;3.53;79.24;99895.66;5024341;28;20391;-76
2022/12/08 07:23:33;;;;;;;25.05;16.55;;;;;;;3.79;78.18;99900.09;5035881;28;20391;-75
2022/12/08 07:26:02;;;;;;;25.65;16.00;;;;;;;3.81;78.00;99892.66;5041033;28;20815;-75
2022/12/08 07:28:33;;;;;;;23.80;15.93;;;;;;;3.60;78.60;99899.16;5033901;28;20466;-75
2022/12/08 07:30:58;;;;;;;25.30;15.77;;;;;;;3.51;79.16;99903.94;5040979;28;20405;-76
2022/12/08 07:33:23;;;;;;;27.10;15.95;;;;;;;3.52;79.31;99902.09;5049350;28;20478;-75
2022/12/08 07:35:57;;;;;;;27.83;15.33;;;;;;;3.60;79.48;99901.81;5038114;28;20764;-76
2022/12/08 07:38:22;;;;;;;27.00;15.75;;;;;;;3.61;79.31;99901.63;5052196;28;20396;-76
2022/12/08 07:40:48;;;;;;;27.40;16.80;;;;;;;3.62;79.22;99899.78;5039547;28;20395;-75
2022/12/08 07:43:13;;;;;;;32.73;16.23;;;;;;;3.50;79.78;99896.94;5036485;28;20387;-76
2022/12/08 07:45:40;;;;;;;29.53;17.07;;;;;;;3.51;79.65;99895.06;5052332;28;20409;-75
2022/12/08 07:48:05;;;;;;;29.73;17.70;;;;;;;3.50;79.93;99886.22;5054229;28;20401;-75
2022/12/08 07:50:31;;;;;;;33.20;18.27;;;;;;;3.56;79.71;99889.88;5047263;28;20752;-76
2022/12/08 07:52:56;;;;;;;27.90;16.92;;;;;;;3.57;79.62;99878.97;5030754;28;20397;-76
2022/12/08 07:55:22;;;;;;;32.43;20.63;;;;;;;3.56;79.84;99879.16;5030909;28;20799;-76
2022/12/08 07:57:49;;;;;;;24.93;15.30;;;;;;;3.50;80.11;99878.19;5054415;28;20389;-77
2022/12/08 08:00:15;;;;;;;26.58;15.68;;;;;;;3.45;80.13;99871.81;5054358;28;20393;-76
2022/12/08 08:02:41;;;;;;;29.40;15.80;;;;;;;3.41;79.80;99873.28;5047566;28;20392;-76
2022/12/08 08:05:06;;;;;;;27.95;16.92;;;;;;;3.48;79.81;99876.75;5051986;28;20401;-77
2022/12/08 08:07:32;;;;;;;27.07;15.73;;;;;;;3.23;80.24;99867.81;5052879;28;20422;-78
2022/12/08 08:09:57;;;;;;;31.73;17.13;;;;;;;3.18;80.73;99862.25;5050282;28;20392;-76
2022/12/08 08:12:23;;;;;;;28.17;16.40;;;;;;;3.14;80.95;99864.50;5050066;28;20378;-76
2022/12/08 08:14:48;;;;;;;29.10;15.60;;;;;;;3.21;81.28;99864.50;5053521;28;20377;-76
2022/12/08 08:17:13;;;;;;;33.30;17.10;;;;;;;3.18;81.06;99862.25;5054034;28;20402;-75
2022/12/08 08:19:38;;;;;;;34.40;17.10;;;;;;;3.21;80.78;99859.13;5052819;28;20389;-76
2022/12/08 08:22:04;;;;;;;31.40;17.10;;;;;;;3.38;80.85;99860.31;5041056;28;20405;-76
2022/12/08 08:24:29;;;;;;;31.27;17.20;;;;;;;3.54;80.18;99867.84;5047651;28;20888;-75
2022/12/08 08:26:54;;;;;;;31.20;17.60;;;;;;;3.64;80.15;99865.53;5039295;28;20405;-76
2022/12/08 08:29:20;;;;;;;31.83;17.17;;;;;;;3.71;79.85;99860.16;5040566;28;20397;-76
2022/12/08 08:31:45;;;;;;;28.75;17.38;;;;;;;3.81;79.59;99865.84;5052454;28;20749;-75
2022/12/08 08:34:11;;;;;;;44.43;23.00;;;;;;;3.85;79.51;99867.91;5053824;28;20394;-76
2022/12/08 08:36:36;;;;;;;53.53;27.83;;;;;;;3.84;79.26;99865.44;5039840;28;20394;-76
2022/12/08 08:39:02;;;;;;;40.90;22.58;;;;;;;3.87;79.65;99867.66;5052949;28;20800;-75
2022/12/08 08:41:28;;;;;;;41.90;22.30;;;;;;;3.88;79.17;99863.97;5053555;28;20393;-78
2022/12/08 08:43:53;;;;;;;46.00;24.10;;;;;;;3.92;79.37;99868.66;5029539;28;20477;-77
2022/12/08 08:46:19;;;;;;;46.57;23.03;;;;;;;3.95;79.51;99864.75;5029592;28;20432;-75
2022/12/08 08:48:44;;;;;;;43.97;22.27;;;;;;;4.01;79.33;99864.69;5053478;28;20405;-75
2022/12/08 08:51:12;;;;;;;39.95;20.83;;;;;;;4.08;79.09;99865.44;5049904;28;20792;-75
2022/12/08 08:53:38;;;;;;;33.70;17.98;;;;;;;4.17;78.73;99871.38;5053362;28;20488;-76
2022/12/08 08:56:18;;;;;;;34.63;17.20;;;;;;;4.10;78.97;99868.75;5052869;28;20418;-76
2022/12/08 08:58:44;;;;;;;35.03;19.43;;;;;;;4.12;78.98;99865.84;5053149;28;20887;-75
2022/12/08 09:01:14;;;;;;;34.88;18.00;;;;;;;4.13;78.74;99860.28;5048772;28;20394;-76
2022/12/08 09:03:39;;;;;;;30.45;17.85;;;;;;;4.27;78.83;99862.84;5035421;28;20415;-76
2022/12/08 09:06:05;;;;;;;32.07;19.10;;;;;;;4.16;78.55;99864.38;5051035;28;20950;-77
2022/12/08 09:08:30;;;;;;;33.42;18.73;;;;;;;4.12;78.80;99860.47;5050077;28;20413;-76
2022/12/08 09:10:55;;;;;;;31.40;19.25;;;;;;;4.09;78.75;99863.59;5031300;28;20876;-78
2022/12/08 09:13:21;;;;;;;32.85;18.33;;;;;;;4.12;79.13;99855.13;5042299;28;20433;-77
2022/12/08 09:15:46;;;;;;;26.97;17.10;;;;;;;4.16;79.23;99867.06;5035082;28;20429;-77
2022/12/08 09:18:12;;;;;;;31.37;17.53;;;;;;;4.17;79.14;99861.50;5039921;28;20421;-75
2022/12/08 09:20:37;;;;;;;30.33;17.63;;;;;;;4.21;79.28;99855.69;5027411;28;20502;-77
2022/12/08 09:23:02;;;;;;;30.02;18.50;;;;;;;4.27;79.07;99850.28;5044646;28;20425;-74
2022/12/08 09:25:28;;;;;;;38.27;19.70;;;;;;;4.31;78.46;99856.84;5051536;28;20439;-78
2022/12/08 09:27:53;;;;;;;33.70;19.23;;;;;;;4.33;78.44;99857.44;5028481;28;20393;-79
2022/12/08 09:30:18;;;;;;;34.05;19.42;;;;;;;4.32;78.83;99853.09;5021853;28;20396;-79
2022/12/08 09:32:44;;;;;;;33.73;17.93;;;;;;;4.33;78.85;99856.63;5037195;28;20745;-78
2022/12/08 09:35:09;;;;;;;37.30;20.33;;;;;;;4.36;78.93;99856.16;5037369;28;20399;-77
2022/12/08 09:37:34;;;;;;;39.88;20.67;;;;;;;4.39;79.14;99853.88;5023030;28;20430;-76
2022/12/08 09:39:59;;;;;;;42.30;21.53;;;;;;;4.43;78.56;99848.91;5050090;28;20450;-77
2022/12/08 09:43:03;;;;;;;36.93;19.43;;;;;;;4.45;78.88;99853.00;5033292;28;20494;-76
2022/12/08 09:45:33;;;;;;;33.42;19.73;;;;;;;4.38;79.21;99846.06;5051094;28;20417;-76
2022/12/08 09:47:59;;;;;;;37.67;20.08;;;;;;;4.49;79.37;99838.09;5052223;28;20381;-77
2022/12/08 09:50:27;;;;;;;33.92;19.63;;;;;;;4.53;79.26;99842.00;5041480;28;20396;-77
2022/12/08 09:53:04;;;;;;;30.43;18.87;;;;;;;4.67;78.79;99835.47;5040436;28;20397;-77
2022/12/08 09:55:41;;;;;;;33.00;19.05;;;;;;;4.62;78.91;99832.59;5023066;28;20401;-77
2022/12/08 09:58:19;;;;;;;37.58;20.50;;;;;;;4.63;78.75;99822.69;5051948;28;20394;-77
2022/12/08 10:00:45;;;;;;;32.97;19.98;;;;;;;4.65;78.86;99825.97;5025663;28;20462;-75
2022/12/08 10:03:11;;;;;;;34.08;18.88;;;;;;;4.69;78.93;99816.44;5027545;28;20484;-76
2022/12/08 10:05:44;;;;;;;32.58;19.10;;;;;;;4.78;78.98;99816.97;5050287;28;20402;-77
2022/12/08 10:08:24;;;;;;;33.28;19.83;;;;;;;4.82;78.53;99812.78;5035549;28;20409;-77
2022/12/08 10:11:03;;;;;;;30.70;18.73;;;;;;;4.81;78.78;99806.59;5039025;28;20433;-75
2022/12/08 10:13:36;;;;;;;33.83;19.77;;;;;;;4.80;78.54;99794.25;5050552;28;20506;-76
2022/12/08 10:16:29;;;;;;;32.58;17.88;;;;;;;4.89;78.68;99798.25;5046137;28;20394;-76
2022/12/08 10:19:00;;;;;;;33.05;18.23;;;;;;;4.90;78.35;99791.84;5051262;28;20769;-76
2022/12/08 10:21:27;;;;;;;33.33;18.27;;;;;;;4.90;78.70;99793.72;5051612;28;20397;-75
2022/12/08 10:24:00;;;;;;;30.92;17.42;;;;;;;4.91;78.33;99793.47;5038660;28;20388;-75
2022/12/08 10:26:26;;;;;;;33.38;18.98;;;;;;;5.03;78.45;99793.56;5019922;28;20419;-76
2022/12/08 10:28:51;;;;;;;32.97;18.60;;;;;;;5.13;78.23;99794.69;5035630;28;20610;-76
2022/12/08 10:31:23;;;;;;;30.20;18.13;;;;;;;5.24;78.14;99787.69;5048883;28;20389;-76
2022/12/08 10:33:57;;;;;;;30.40;18.27;;;;;;;5.32;77.61;99781.19;5050094;28;20397;-76
2022/12/08 10:36:43;;;;;;;31.35;18.63;;;;;;;5.42;77.86;99781.47;5051167;28;20389;-76
2022/12/08 10:39:42;;;;;;;32.08;18.65;;;;;;;5.36;77.45;99777.84;5049247;28;20402;-76
2022/12/08 10:42:13;;;;;;;28.58;18.13;;;;;;;5.33;77.88;99783.69;5041468;28;20455;-76
2022/12/08 10:44:57;;;;;;;32.60;19.15;;;;;;;5.32;77.52;99776.66;5041481;28;20413;-75
2022/12/08 10:47:24;;;;;;;31.13;19.25;;;;;;;5.21;78.09;99774.72;5049903;28;20417;-76
2022/12/08 10:50:16;;;;;;;33.15;19.27;;;;;;;5.23;78.35;99762.72;5034411;28;20426;-75
2022/12/08 10:52:41;;;;;;;31.38;19.20;;;;;;;5.31;78.23;99769.63;5036508;28;20436;-76
2022/12/08 10:55:18;;;;;;;30.20;18.73;;;;;;;5.43;77.87;99769.69;5044756;28;20801;-76
2022/12/08 10:57:44;;;;;;;32.25;19.15;;;;;;;5.49;77.56;99761.53;5026295;28;20447;-76
2022/12/08 11:00:15;;;;;;;34.40;18.25;;;;;;;5.59;77.38;99755.59;5029655;28;20397;-73
2022/12/08 11:03:01;;;;;;;33.10;19.73;;;;;;;5.68;76.92;99749.66;5020894;28;20408;-76
2022/12/08 11:05:35;;;;;;;30.13;17.80;;;;;;;5.73;76.70;99748.97;5044653;28;20421;-75
2022/12/08 11:08:03;;;;;;;33.17;18.67;;;;;;;5.77;77.00;99747.44;5053850;28;20390;-75
2022/12/08 11:10:42;;;;;;;37.63;20.63;;;;;;;5.79;76.78;99747.25;5047118;28;20870;-75
2022/12/08 11:13:18;;;;;;;35.72;20.55;;;;;;;5.71;76.97;99745.69;5048096;28;20451;-75
2022/12/08 11:15:45;;;;;;;32.95;19.10;;;;;;;5.63;77.08;99748.72;5051382;28;20406;-74
2022/12/08 11:18:37;;;;;;;31.90;19.48;;;;;;;5.59;77.46;99739.47;5028739;28;20404;-74
2022/12/08 11:21:13;;;;;;;35.70;19.42;;;;;;;5.74;76.76;99743.38;5030337;28;20391;-74
2022/12/08 11:23:41;;;;;;;29.25;18.73;;;;;;;5.63;77.60;99733.41;5035511;28;20403;-74
2022/12/08 11:26:18;;;;;;;30.35;17.80;;;;;;;5.70;77.46;99730.59;5044216;28;20421;-74
2022/12/08 11:28:43;;;;;;;29.13;17.30;;;;;;;5.73;77.46;99730.97;5037021;28;20395;-75
2022/12/08 11:31:26;;;;;;;26.30;16.57;;;;;;;5.77;77.17;99728.63;5046514;28;20393;-75
2022/12/08 11:33:51;;;;;;;27.20;16.92;;;;;;;5.81;76.84;99720.94;5043313;28;20408;-75
2022/12/08 11:36:21;;;;;;;27.73;17.40;;;;;;;5.85;77.17;99732.88;5043316;28;20741;-75
2022/12/08 11:38:50;;;;;;;29.43;17.37;;;;;;;5.90;76.71;99717.69;5043320;28;20901;-75
2022/12/08 11:41:19;;;;;;;28.05;16.23;;;;;;;6.06;76.26;99714.31;5048526;28;20461;-75